createdAt,value
2018-08-25T00:00:03.907Z,20.39
2018-08-25T00:00:44.491Z,20.44
2018-08-25T00:01:25.058Z,20.5
2018-08-25T00:02:05.636Z,20.4
2018-08-25T00:02:46.181Z,20.43
2018-08-25T00:03:26.758Z,20.47
2018-08-25T00:04:07.324Z,20.5
2018-08-25T00:04:47.888Z,20.36
2018-08-25T00:05:28.463Z,20.5
2018-08-25T00:06:09.017Z,20.37
2018-08-25T00:06:49.589Z,20.36
2018-08-25T00:07:30.141Z,20.39
2018-08-25T00:08:10.704Z,20.4
2018-08-25T00:08:51.270Z,20.41
2018-08-25T00:09:31.838Z,20.32
2018-08-25T00:10:12.397Z,20.29
2018-08-25T00:10:52.974Z,20.29
2018-08-25T00:11:33.528Z,20.39
2018-08-25T00:12:14.089Z,20.37
2018-08-25T00:12:54.644Z,20.29
2018-08-25T00:13:35.247Z,20.41
2018-08-25T00:14:15.816Z,20.4
2018-08-25T00:14:56.365Z,20.39
2018-08-25T00:15:36.922Z,20.31
2018-08-25T00:16:17.509Z,20.39
2018-08-25T00:16:58.069Z,20.25
2018-08-25T00:17:38.633Z,20.32
2018-08-25T00:18:19.201Z,20.31
2018-08-25T00:18:59.921Z,20.24
2018-08-25T00:19:40.475Z,20.21
2018-08-25T00:20:21.043Z,20.19
2018-08-25T00:21:01.607Z,20.14
2018-08-25T00:21:42.189Z,20.18
2018-08-25T00:22:22.745Z,20.1
2018-08-25T00:23:03.310Z,20.21
2018-08-25T00:23:43.883Z,20.18
2018-08-25T00:24:24.448Z,20.18
2018-08-25T00:25:05.014Z,20.14
2018-08-25T00:25:45.586Z,20.21
2018-08-25T00:26:26.159Z,20.14
2018-08-25T00:27:06.730Z,20.22
2018-08-25T00:27:47.290Z,20.14
2018-08-25T00:28:27.851Z,20.21
2018-08-25T00:29:08.430Z,20.13
2018-08-25T00:29:48.991Z,20.18
2018-08-25T00:30:29.565Z,20.19
2018-08-25T00:31:10.129Z,20.14
2018-08-25T00:31:50.693Z,20.14
2018-08-25T00:32:31.252Z,20.14
2018-08-25T00:33:11.812Z,20.16
2018-08-25T00:33:52.374Z,20.13
2018-08-25T00:34:32.964Z,20.22
2018-08-25T00:35:13.529Z,20.07
2018-08-25T00:35:54.088Z,20.11
2018-08-25T00:36:34.670Z,20.13
2018-08-25T00:37:15.226Z,20.09
2018-08-25T00:37:55.815Z,20.11
2018-08-25T00:38:36.372Z,20.14
2018-08-25T00:39:16.934Z,20.1
2018-08-25T00:39:57.503Z,20.13
2018-08-25T00:40:38.057Z,20.13
2018-08-25T00:41:18.605Z,20.09
2018-08-25T00:41:59.151Z,20.11
2018-08-25T00:42:39.718Z,20.13
2018-08-25T00:43:20.290Z,20.13
2018-08-25T00:44:00.865Z,20.13
2018-08-25T00:44:41.438Z,20.04
2018-08-25T00:45:21.998Z,20.07
2018-08-25T00:46:02.551Z,20.09
2018-08-25T00:46:43.105Z,20.06
2018-08-25T00:47:23.653Z,20.04
2018-08-25T00:48:04.209Z,20.14
2018-08-25T00:48:44.787Z,20.06
2018-08-25T00:49:25.389Z,20.06
2018-08-25T00:50:05.937Z,20.06
2018-08-25T00:50:46.498Z,20.09
2018-08-25T00:51:27.076Z,19.96
2018-08-25T00:52:07.622Z,20.07
2018-08-25T00:52:48.204Z,20.06
2018-08-25T00:53:28.774Z,20.09
2018-08-25T00:54:09.330Z,20.02
2018-08-25T00:54:49.887Z,20.06
2018-08-25T00:55:30.479Z,20.03
2018-08-25T00:56:11.025Z,20.04
2018-08-25T00:56:51.590Z,20.03
2018-08-25T00:57:32.167Z,20.04
2018-08-25T00:58:12.721Z,20.09
2018-08-25T00:58:53.286Z,20.06
2018-08-25T00:59:33.858Z,20.06
2018-08-25T01:00:14.437Z,19.96
2018-08-25T01:00:54.996Z,19.92
2018-08-25T01:01:35.568Z,19.94
2018-08-25T01:02:16.131Z,19.89
2018-08-25T01:02:56.700Z,19.92
2018-08-25T01:03:37.263Z,19.92
2018-08-25T01:04:17.815Z,19.96
2018-08-25T01:04:58.385Z,19.96
2018-08-25T01:05:38.949Z,20.04
2018-08-25T01:06:19.503Z,19.94
2018-08-25T01:07:00.071Z,19.92
2018-08-25T01:07:40.635Z,20.1
2018-08-25T01:08:21.206Z,19.94
2018-08-25T01:09:01.769Z,19.92
2018-08-25T01:09:42.332Z,19.92
2018-08-25T01:10:22.888Z,19.88
2018-08-25T01:11:03.473Z,19.85
2018-08-25T01:11:44.043Z,19.92
2018-08-25T01:12:24.624Z,19.88
2018-08-25T01:13:05.180Z,19.89
2018-08-25T01:13:45.739Z,19.92
2018-08-25T01:14:26.299Z,19.89
2018-08-25T01:15:06.842Z,19.92
2018-08-25T01:15:47.504Z,19.96
2018-08-25T01:16:27.983Z,19.89
2018-08-25T01:17:08.563Z,19.89
2018-08-25T01:17:49.122Z,19.91
2018-08-25T01:18:29.722Z,19.92
2018-08-25T01:19:10.300Z,19.92
2018-08-25T01:19:50.851Z,19.95
2018-08-25T01:20:31.413Z,19.84
2018-08-25T01:21:11.976Z,19.88
2018-08-25T01:21:52.514Z,19.99
2018-08-25T01:22:33.087Z,19.96
2018-08-25T01:23:13.705Z,19.91
2018-08-25T01:23:54.204Z,19.85
2018-08-25T01:24:34.774Z,19.92
2018-08-25T01:25:15.334Z,19.89
2018-08-25T01:25:55.898Z,19.91
2018-08-25T01:26:36.461Z,19.91
2018-08-25T01:27:17.046Z,20.06
2018-08-25T01:27:57.607Z,19.88
2018-08-25T01:28:38.172Z,19.96
2018-08-25T01:29:18.733Z,19.95
2018-08-25T01:29:59.294Z,19.92
2018-08-25T01:30:39.850Z,19.96
2018-08-25T01:31:20.453Z,19.92
2018-08-25T01:32:01.017Z,19.94
2018-08-25T01:32:41.573Z,19.96
2018-08-25T01:33:22.137Z,19.94
2018-08-25T01:34:02.708Z,19.88
2018-08-25T01:34:43.293Z,19.85
2018-08-25T01:35:23.858Z,19.86
2018-08-25T01:36:04.417Z,19.88
2018-08-25T01:36:44.977Z,19.91
2018-08-25T01:37:25.534Z,19.95
2018-08-25T01:38:06.198Z,19.89
2018-08-25T01:38:46.777Z,19.88
2018-08-25T01:39:27.352Z,19.94
2018-08-25T01:40:07.921Z,19.94
2018-08-25T01:40:48.475Z,19.91
2018-08-25T01:41:29.075Z,19.89
2018-08-25T01:42:09.621Z,19.92
2018-08-25T01:42:50.203Z,19.92
2018-08-25T01:43:30.755Z,19.81
2018-08-25T01:44:11.323Z,19.79
2018-08-25T01:44:51.879Z,19.86
2018-08-25T01:45:32.479Z,19.84
2018-08-25T01:46:13.052Z,19.77
2018-08-25T01:46:53.628Z,19.76
2018-08-25T01:47:34.200Z,19.79
2018-08-25T01:48:14.787Z,19.69
2018-08-25T01:48:55.376Z,19.82
2018-08-25T01:49:35.938Z,19.82
2018-08-25T01:50:16.524Z,19.7
2018-08-25T01:50:57.094Z,19.69
2018-08-25T01:51:37.640Z,19.77
2018-08-25T01:52:18.211Z,19.73
2018-08-25T01:52:58.773Z,19.74
2018-08-25T01:53:39.337Z,19.7
2018-08-25T01:54:19.926Z,19.64
2018-08-25T01:55:00.517Z,19.74
2018-08-25T01:55:41.077Z,19.7
2018-08-25T01:56:21.645Z,19.71
2018-08-25T01:57:02.201Z,19.69
2018-08-25T01:57:42.800Z,19.64
2018-08-25T01:58:23.432Z,19.63
2018-08-25T01:59:04.003Z,19.63
2018-08-25T01:59:44.580Z,19.74
2018-08-25T02:00:25.120Z,19.71
2018-08-25T02:01:05.690Z,19.76
2018-08-25T02:01:46.277Z,19.76
2018-08-25T02:02:26.844Z,19.71
2018-08-25T02:03:07.457Z,19.63
2018-08-25T02:03:48.011Z,19.67
2018-08-25T02:04:28.581Z,19.7
2018-08-25T02:05:09.160Z,19.62
2018-08-25T02:05:49.769Z,19.66
2018-08-25T02:06:30.340Z,19.59
2018-08-25T02:07:10.899Z,19.56
2018-08-25T02:07:51.468Z,19.58
2018-08-25T02:08:32.084Z,19.63
2018-08-25T02:09:12.631Z,19.54
2018-08-25T02:09:53.220Z,19.59
2018-08-25T02:10:33.773Z,19.56
2018-08-25T02:11:14.357Z,19.66
2018-08-25T02:11:54.906Z,19.59
2018-08-25T02:12:35.486Z,19.55
2018-08-25T02:13:16.080Z,19.58
2018-08-25T02:13:56.634Z,19.58
2018-08-25T02:14:37.204Z,19.66
2018-08-25T02:15:17.766Z,19.55
2018-08-25T02:15:58.329Z,19.66
2018-08-25T02:16:38.881Z,19.59
2018-08-25T02:17:19.459Z,19.62
2018-08-25T02:18:00.033Z,19.62
2018-08-25T02:18:40.620Z,19.62
2018-08-25T02:19:21.177Z,19.7
2018-08-25T02:20:01.733Z,19.59
2018-08-25T02:20:42.299Z,19.59
2018-08-25T02:21:22.856Z,19.62
2018-08-25T02:22:03.439Z,19.56
2018-08-25T02:22:44.013Z,19.56
2018-08-25T02:23:24.621Z,19.55
2018-08-25T02:24:05.198Z,19.63
2018-08-25T02:24:45.778Z,19.59
2018-08-25T02:25:26.376Z,19.59
2018-08-25T02:26:06.893Z,19.58
2018-08-25T02:26:47.459Z,19.55
2018-08-25T02:27:28.098Z,19.51
2018-08-25T02:28:08.668Z,19.49
2018-08-25T02:28:49.200Z,19.45
2018-08-25T02:29:29.751Z,19.48
2018-08-25T02:30:10.318Z,19.59
2018-08-25T02:30:50.900Z,19.48
2018-08-25T02:31:31.475Z,19.51
2018-08-25T02:32:12.029Z,19.55
2018-08-25T02:32:52.603Z,19.64
2018-08-25T02:33:33.167Z,19.62
2018-08-25T02:34:13.744Z,19.47
2018-08-25T02:34:54.308Z,19.52
2018-08-25T02:35:35.075Z,19.45
2018-08-25T02:36:15.637Z,19.37
2018-08-25T02:36:56.209Z,19.51
2018-08-25T02:37:36.763Z,19.45
2018-08-25T02:38:17.316Z,19.4
2018-08-25T02:38:57.885Z,19.36
2018-08-25T02:39:38.455Z,19.47
2018-08-25T02:40:19.022Z,19.44
2018-08-25T02:40:59.645Z,19.49
2018-08-25T02:41:40.147Z,19.52
2018-08-25T02:42:20.729Z,19.51
2018-08-25T02:43:01.295Z,19.49
2018-08-25T02:43:41.862Z,19.45
2018-08-25T02:44:22.425Z,19.51
2018-08-25T02:45:02.977Z,19.55
2018-08-25T02:45:43.553Z,19.47
2018-08-25T02:46:24.155Z,19.48
2018-08-25T02:47:04.724Z,19.48
2018-08-25T02:47:45.273Z,19.49
2018-08-25T02:48:25.918Z,19.52
2018-08-25T02:49:06.484Z,19.62
2018-08-25T02:49:47.038Z,19.56
2018-08-25T02:50:27.614Z,19.54
2018-08-25T02:51:08.188Z,19.58
2018-08-25T02:51:48.755Z,19.49
2018-08-25T02:52:29.322Z,19.63
2018-08-25T02:53:09.881Z,19.67
2018-08-25T02:53:50.435Z,19.55
2018-08-25T02:54:30.999Z,19.63
2018-08-25T02:55:11.554Z,19.56
2018-08-25T02:55:52.123Z,19.64
2018-08-25T02:56:32.690Z,19.59
2018-08-25T02:57:13.242Z,19.63
2018-08-25T02:57:53.796Z,19.51
2018-08-25T02:58:34.349Z,19.59
2018-08-25T02:59:14.911Z,19.59
2018-08-25T02:59:55.463Z,19.59
2018-08-25T03:00:36.023Z,19.55
2018-08-25T03:01:16.647Z,19.67
2018-08-25T03:01:57.207Z,19.63
2018-08-25T03:02:37.766Z,19.66
2018-08-25T03:03:18.337Z,19.7
2018-08-25T03:03:58.928Z,19.59
2018-08-25T03:04:39.471Z,19.56
2018-08-25T03:05:20.036Z,19.62
2018-08-25T03:06:00.601Z,19.67
2018-08-25T03:06:41.153Z,19.66
2018-08-25T03:07:21.714Z,19.54
2018-08-25T03:08:02.314Z,19.55
2018-08-25T03:08:42.889Z,19.51
2018-08-25T03:09:23.438Z,19.56
2018-08-25T03:10:04.021Z,19.59
2018-08-25T03:10:44.586Z,19.51
2018-08-25T03:11:25.147Z,19.49
2018-08-25T03:12:05.761Z,19.54
2018-08-25T03:12:46.349Z,19.44
2018-08-25T03:13:26.933Z,19.45
2018-08-25T03:14:07.507Z,19.49
2018-08-25T03:14:48.070Z,19.54
2018-08-25T03:15:28.630Z,19.48
2018-08-25T03:16:09.210Z,19.58
2018-08-25T03:16:49.808Z,19.47
2018-08-25T03:17:30.388Z,19.56
2018-08-25T03:18:10.973Z,19.52
2018-08-25T03:18:51.525Z,19.64
2018-08-25T03:19:32.088Z,19.62
2018-08-25T03:20:12.672Z,19.63
2018-08-25T03:20:53.238Z,19.58
2018-08-25T03:21:33.802Z,19.63
2018-08-25T03:22:14.361Z,19.58
2018-08-25T03:22:54.918Z,19.59
2018-08-25T03:23:35.505Z,19.49
2018-08-25T03:24:16.066Z,19.59
2018-08-25T03:24:56.651Z,19.51
2018-08-25T03:25:37.201Z,19.62
2018-08-25T03:26:17.759Z,19.49
2018-08-25T03:26:58.340Z,19.58
2018-08-25T03:27:38.906Z,19.48
2018-08-25T03:28:19.470Z,19.44
2018-08-25T03:29:00.066Z,19.41
2018-08-25T03:29:40.648Z,19.45
2018-08-25T03:30:21.215Z,19.47
2018-08-25T03:31:01.800Z,19.52
2018-08-25T03:31:42.369Z,19.47
2018-08-25T03:32:22.935Z,19.54
2018-08-25T03:33:03.486Z,19.41
2018-08-25T03:33:44.072Z,19.49
2018-08-25T03:34:24.633Z,19.41
2018-08-25T03:35:05.191Z,19.47
2018-08-25T03:35:45.765Z,19.4
2018-08-25T03:36:26.339Z,19.44
2018-08-25T03:37:06.900Z,19.4
2018-08-25T03:37:47.489Z,19.47
2018-08-25T03:38:28.038Z,19.48
2018-08-25T03:39:08.631Z,19.51
2018-08-25T03:39:49.180Z,19.55
2018-08-25T03:40:29.809Z,19.55
2018-08-25T03:41:10.357Z,19.66
2018-08-25T03:41:50.913Z,19.55
2018-08-25T03:42:31.468Z,19.56
2018-08-25T03:43:12.079Z,19.63
2018-08-25T03:43:52.595Z,19.67
2018-08-25T03:44:33.171Z,19.63
2018-08-25T03:45:13.719Z,19.55
2018-08-25T03:45:54.297Z,19.62
2018-08-25T03:46:34.854Z,19.56
2018-08-25T03:47:15.416Z,19.67
2018-08-25T03:47:55.983Z,19.47
2018-08-25T03:48:36.575Z,19.62
2018-08-25T03:49:17.140Z,19.59
2018-08-25T03:49:57.729Z,19.56
2018-08-25T03:50:38.277Z,19.45
2018-08-25T03:51:18.845Z,19.41
2018-08-25T03:51:59.431Z,19.48
2018-08-25T03:52:40.008Z,19.44
2018-08-25T03:53:20.574Z,19.4
2018-08-25T03:54:01.130Z,19.41
2018-08-25T03:54:41.683Z,19.39
2018-08-25T03:55:22.293Z,19.37
2018-08-25T03:56:02.836Z,19.44
2018-08-25T03:56:43.411Z,19.45
2018-08-25T03:57:23.972Z,19.36
2018-08-25T03:58:04.567Z,19.34
2018-08-25T03:58:45.143Z,19.4
2018-08-25T03:59:25.714Z,19.33
2018-08-25T04:00:06.275Z,19.4
2018-08-25T04:00:46.864Z,19.27
2018-08-25T04:01:27.508Z,19.33
2018-08-25T04:02:08.002Z,19.29
2018-08-25T04:02:48.572Z,19.29
2018-08-25T04:03:29.123Z,19.19
2018-08-25T04:04:09.670Z,19.31
2018-08-25T04:04:50.246Z,19.31
2018-08-25T04:05:30.806Z,19.31
2018-08-25T04:06:11.418Z,19.29
2018-08-25T04:06:51.990Z,19.27
2018-08-25T04:07:32.559Z,19.34
2018-08-25T04:08:13.118Z,19.34
2018-08-25T04:08:53.708Z,19.37
2018-08-25T04:09:34.275Z,19.34
2018-08-25T04:10:14.862Z,19.33
2018-08-25T04:10:55.410Z,19.26
2018-08-25T04:11:35.971Z,19.16
2018-08-25T04:12:16.530Z,19.29
2018-08-25T04:12:57.139Z,19.18
2018-08-25T04:13:37.737Z,19.22
2018-08-25T04:14:18.301Z,19.26
2018-08-25T04:14:58.989Z,19.26
2018-08-25T04:15:39.416Z,19.21
2018-08-25T04:16:19.994Z,19.22
2018-08-25T04:17:00.589Z,19.27
2018-08-25T04:17:41.118Z,19.16
2018-08-25T04:18:21.671Z,19.16
2018-08-25T04:19:02.236Z,19.16
2018-08-25T04:19:42.807Z,19.21
2018-08-25T04:20:23.373Z,19.29
2018-08-25T04:21:03.924Z,19.19
2018-08-25T04:21:44.493Z,19.22
2018-08-25T04:22:25.054Z,19.18
2018-08-25T04:23:05.639Z,19.27
2018-08-25T04:23:46.230Z,19.18
2018-08-25T04:24:26.818Z,19.26
2018-08-25T04:25:07.382Z,19.27
2018-08-25T04:25:48.123Z,19.26
2018-08-25T04:26:28.743Z,19.16
2018-08-25T04:27:09.335Z,19.22
2018-08-25T04:27:49.919Z,19.27
2018-08-25T04:28:30.506Z,19.3
2018-08-25T04:29:11.057Z,19.29
2018-08-25T04:29:51.683Z,19.31
2018-08-25T04:30:32.354Z,19.3
2018-08-25T04:31:12.934Z,19.31
2018-08-25T04:31:53.502Z,19.22
2018-08-25T04:32:34.060Z,19.3
2018-08-25T04:33:14.636Z,19.3
2018-08-25T04:33:55.185Z,19.27
2018-08-25T04:34:35.750Z,19.26
2018-08-25T04:35:16.314Z,19.26
2018-08-25T04:35:56.886Z,19.16
2018-08-25T04:36:37.459Z,19.12
2018-08-25T04:37:18.025Z,19.16
2018-08-25T04:37:58.592Z,19.18
2018-08-25T04:38:39.232Z,19.22
2018-08-25T04:39:19.814Z,19.26
2018-08-25T04:40:00.384Z,19.33
2018-08-25T04:40:40.937Z,19.37
2018-08-25T04:41:21.696Z,19.34
2018-08-25T04:42:02.152Z,19.39
2018-08-25T04:42:42.724Z,19.37
2018-08-25T04:43:23.292Z,19.41
2018-08-25T04:44:03.873Z,19.36
2018-08-25T04:44:44.457Z,19.34
2018-08-25T04:45:25.013Z,19.39
2018-08-25T04:46:05.580Z,19.48
2018-08-25T04:46:46.135Z,19.44
2018-08-25T04:47:26.683Z,19.44
2018-08-25T04:48:07.240Z,19.52
2018-08-25T04:48:47.830Z,19.48
2018-08-25T04:49:28.402Z,19.56
2018-08-25T04:50:08.964Z,19.58
2018-08-25T04:50:49.522Z,19.47
2018-08-25T04:51:30.106Z,19.51
2018-08-25T04:52:10.689Z,19.51
2018-08-25T04:52:51.270Z,19.51
2018-08-25T04:53:31.840Z,19.51
2018-08-25T04:54:12.406Z,19.52
2018-08-25T04:54:52.977Z,19.54
2018-08-25T04:55:33.540Z,19.49
2018-08-25T04:56:14.113Z,19.66
2018-08-25T04:56:54.693Z,19.52
2018-08-25T04:57:35.248Z,19.59
2018-08-25T04:58:15.805Z,19.58
2018-08-25T04:58:56.360Z,19.52
2018-08-25T04:59:36.928Z,19.51
2018-08-25T05:00:17.500Z,19.67
2018-08-25T05:00:58.059Z,19.58
2018-08-25T05:01:38.630Z,19.64
2018-08-25T05:02:19.200Z,19.47
2018-08-25T05:02:59.772Z,19.59
2018-08-25T05:03:40.389Z,19.62
2018-08-25T05:04:20.950Z,19.54
2018-08-25T05:05:01.531Z,19.52
2018-08-25T05:05:42.095Z,19.48
2018-08-25T05:06:22.661Z,19.49
2018-08-25T05:07:03.236Z,19.47
2018-08-25T05:07:43.856Z,19.44
2018-08-25T05:08:24.343Z,19.33
2018-08-25T05:09:04.899Z,19.39
2018-08-25T05:09:45.487Z,19.41
2018-08-25T05:10:26.031Z,19.37
2018-08-25T05:11:06.613Z,19.41
2018-08-25T05:11:47.155Z,19.37
2018-08-25T05:12:27.733Z,19.44
2018-08-25T05:13:08.328Z,19.48
2018-08-25T05:13:48.885Z,19.51
2018-08-25T05:14:29.435Z,19.48
2018-08-25T05:15:10.023Z,19.49
2018-08-25T05:15:50.590Z,19.51
2018-08-25T05:16:31.162Z,19.45
2018-08-25T05:17:11.737Z,19.58
2018-08-25T05:17:52.284Z,19.52
2018-08-25T05:18:32.856Z,19.58
2018-08-25T05:19:13.434Z,19.62
2018-08-25T05:19:54.005Z,19.66
2018-08-25T05:20:34.564Z,19.59
2018-08-25T05:21:15.124Z,19.69
2018-08-25T05:21:55.815Z,19.66
2018-08-25T05:22:36.276Z,19.66
2018-08-25T05:23:16.837Z,19.69
2018-08-25T05:23:57.407Z,19.66
2018-08-25T05:24:37.997Z,19.63
2018-08-25T05:25:18.569Z,19.62
2018-08-25T05:25:59.138Z,19.69
2018-08-25T05:26:39.711Z,19.69
2018-08-25T05:27:20.281Z,19.58
2018-08-25T05:28:00.861Z,19.67
2018-08-25T05:28:41.425Z,19.69
2018-08-25T05:29:21.976Z,19.63
2018-08-25T05:30:02.544Z,19.62
2018-08-25T05:30:43.087Z,19.7
2018-08-25T05:31:23.676Z,19.62
2018-08-25T05:32:04.231Z,19.63
2018-08-25T05:32:44.791Z,19.74
2018-08-25T05:33:25.380Z,19.69
2018-08-25T05:34:05.948Z,19.82
2018-08-25T05:34:46.511Z,19.73
2018-08-25T05:35:27.072Z,19.81
2018-08-25T05:36:07.629Z,19.81
2018-08-25T05:36:48.196Z,19.85
2018-08-25T05:37:28.768Z,19.89
2018-08-25T05:38:09.339Z,19.91
2018-08-25T05:38:49.903Z,19.92
2018-08-25T05:39:30.457Z,19.84
2018-08-25T05:40:11.027Z,19.86
2018-08-25T05:40:51.587Z,19.89
2018-08-25T05:41:32.159Z,19.96
2018-08-25T05:42:12.729Z,20
2018-08-25T05:42:53.310Z,19.95
2018-08-25T05:43:34.028Z,19.92
2018-08-25T05:44:14.696Z,19.94
2018-08-25T05:44:55.139Z,20.02
2018-08-25T05:45:35.719Z,19.96
2018-08-25T05:46:16.291Z,20
2018-08-25T05:46:56.867Z,19.99
2018-08-25T05:47:37.421Z,19.95
2018-08-25T05:48:17.995Z,20.03
2018-08-25T05:48:58.582Z,20.03
2018-08-25T05:49:39.157Z,19.99
2018-08-25T05:50:19.791Z,19.95
2018-08-25T05:51:00.328Z,19.94
2018-08-25T05:51:40.919Z,19.94
2018-08-25T05:52:21.494Z,19.89
2018-08-25T05:53:02.072Z,20.03
2018-08-25T05:53:42.653Z,19.95
2018-08-25T05:54:23.213Z,19.99
2018-08-25T05:55:03.755Z,19.94
2018-08-25T05:55:44.626Z,20.02
2018-08-25T05:56:26.973Z,20
2018-08-25T05:57:08.899Z,20.07
2018-08-25T05:57:51.125Z,20.06
2018-08-25T05:58:32.490Z,20.03
2018-08-25T05:59:15.602Z,20.07
2018-08-25T05:59:58.825Z,20.03
2018-08-25T06:00:42.148Z,20.11
2018-08-25T06:01:25.347Z,20.07
2018-08-25T06:02:07.366Z,20.16
2018-08-25T06:02:51.705Z,20.13
2018-08-25T06:03:33.329Z,20.14
2018-08-25T06:04:16.091Z,20.18
2018-08-25T06:04:57.571Z,20.14
2018-08-25T06:05:39.535Z,20.11
2018-08-25T06:06:21.626Z,20.18
2018-08-25T06:07:03.640Z,20.13
2018-08-25T06:07:45.083Z,20.11
2018-08-25T06:08:26.475Z,20.18
2018-08-25T06:09:08.461Z,20.13
2018-08-25T06:09:49.941Z,20.16
2018-08-25T06:10:31.866Z,20.22
2018-08-25T06:11:13.974Z,20.21
2018-08-25T06:11:57.764Z,20.34
2018-08-25T06:12:40.605Z,20.28
2018-08-25T06:13:22.738Z,20.26
2018-08-25T06:14:04.142Z,20.25
2018-08-25T06:14:47.344Z,20.29
2018-08-25T06:15:29.676Z,20.28
2018-08-25T06:16:12.618Z,20.31
2018-08-25T06:16:54.628Z,20.26
2018-08-25T06:17:36.078Z,20.29
2018-08-25T06:18:17.428Z,20.22
2018-08-25T06:18:59.701Z,20.31
2018-08-25T06:19:46.640Z,20.34
2018-08-25T06:20:28.039Z,20.26
2018-08-25T06:21:10.116Z,20.29
2018-08-25T06:21:52.173Z,20.26
2018-08-25T06:22:38.879Z,20.32
2018-08-25T06:23:21.858Z,20.41
2018-08-25T06:24:05.056Z,20.31
2018-08-25T06:24:48.118Z,20.37
2018-08-25T06:25:29.467Z,20.39
2018-08-25T06:26:10.600Z,20.41
2018-08-25T06:26:52.621Z,20.4
2018-08-25T06:27:33.345Z,20.37
2018-08-25T06:28:13.927Z,20.41
2018-08-25T06:28:54.481Z,20.37
2018-08-25T06:29:35.078Z,20.39
2018-08-25T06:30:15.689Z,20.37
2018-08-25T06:30:56.174Z,20.41
2018-08-25T06:31:36.724Z,20.37
2018-08-25T06:32:17.306Z,20.32
2018-08-25T06:32:57.878Z,20.32
2018-08-25T06:33:38.440Z,20.28
2018-08-25T06:34:19.001Z,20.25
2018-08-25T06:34:59.624Z,20.24
2018-08-25T06:35:40.237Z,20.39
2018-08-25T06:36:20.833Z,20.41
2018-08-25T06:37:01.370Z,20.44
2018-08-25T06:37:41.930Z,20.37
2018-08-25T06:38:22.514Z,20.4
2018-08-25T06:39:03.077Z,20.4
2018-08-25T06:39:43.667Z,20.41
2018-08-25T06:40:24.235Z,20.5
2018-08-25T06:41:04.826Z,20.41
2018-08-25T06:41:45.410Z,20.44
2018-08-25T06:42:26.039Z,20.34
2018-08-25T06:43:06.574Z,20.56
2018-08-25T06:43:47.147Z,20.55
2018-08-25T06:44:27.718Z,20.51
2018-08-25T06:45:08.295Z,20.58
2018-08-25T06:45:48.862Z,20.6
2018-08-25T06:46:29.438Z,20.6
2018-08-25T06:47:10.032Z,20.7
2018-08-25T06:47:50.603Z,20.75
2018-08-25T06:48:31.178Z,20.85
2018-08-25T06:49:11.730Z,20.93
2018-08-25T06:49:52.328Z,21.05
2018-08-25T06:50:32.897Z,21.12
2018-08-25T06:51:13.462Z,21.25
2018-08-25T06:51:54.044Z,21.37
2018-08-25T06:52:34.630Z,21.54
2018-08-25T06:53:15.289Z,21.46
2018-08-25T06:53:55.838Z,21.62
2018-08-25T06:54:36.418Z,21.67
2018-08-25T06:55:16.993Z,21.83
2018-08-25T06:55:57.549Z,21.88
2018-08-25T06:56:38.174Z,21.93
2018-08-25T06:57:18.721Z,21.99
2018-08-25T06:57:59.323Z,22.06
2018-08-25T06:58:40.137Z,22.15
2018-08-25T06:59:20.839Z,22.13
2018-08-25T07:00:01.402Z,22.18
2018-08-25T07:00:42.015Z,22.36
2018-08-25T07:01:22.589Z,22.3
2018-08-25T07:02:03.161Z,22.29
2018-08-25T07:02:43.742Z,22.26
2018-08-25T07:03:24.449Z,22.33
2018-08-25T07:04:05.015Z,22.35
2018-08-25T07:04:45.937Z,22.3
2018-08-25T07:05:26.687Z,22.28
2018-08-25T07:06:07.387Z,22.26
2018-08-25T07:06:47.838Z,22.26
2018-08-25T07:07:28.501Z,22.17
2018-08-25T07:08:09.109Z,22.14
2018-08-25T07:08:49.691Z,21.99
2018-08-25T07:09:30.267Z,22.02
2018-08-25T07:10:10.902Z,22.08
2018-08-25T07:10:51.633Z,22.06
2018-08-25T07:11:32.200Z,22.02
2018-08-25T07:12:12.804Z,21.93
2018-08-25T07:12:53.421Z,21.91
2018-08-25T07:13:33.954Z,21.76
2018-08-25T07:14:14.524Z,21.7
2018-08-25T07:14:55.090Z,21.67
2018-08-25T07:15:35.679Z,21.55
2018-08-25T07:16:16.236Z,21.7
2018-08-25T07:16:56.835Z,21.61
2018-08-25T07:17:37.464Z,21.51
2018-08-25T07:18:18.008Z,21.55
2018-08-25T07:18:58.742Z,21.51
2018-08-25T07:19:39.265Z,21.48
2018-08-25T07:20:19.876Z,21.45
2018-08-25T07:21:00.730Z,21.4
2018-08-25T07:21:41.322Z,21.4
2018-08-25T07:22:21.910Z,21.33
2018-08-25T07:23:02.495Z,21.36
2018-08-25T07:23:43.103Z,21.36
2018-08-25T07:24:23.694Z,21.36
2018-08-25T07:25:04.241Z,21.42
2018-08-25T07:25:44.905Z,21.35
2018-08-25T07:26:25.457Z,21.27
2018-08-25T07:27:06.017Z,21.29
2018-08-25T07:27:46.598Z,21.27
2018-08-25T07:28:27.157Z,21.29
2018-08-25T07:29:07.724Z,21.24
2018-08-25T07:29:48.289Z,21.35
2018-08-25T07:30:28.867Z,21.39
2018-08-25T07:31:09.429Z,21.36
2018-08-25T07:31:49.990Z,21.35
2018-08-25T07:32:30.658Z,21.39
2018-08-25T07:33:11.206Z,21.35
2018-08-25T07:33:51.821Z,21.33
2018-08-25T07:34:32.378Z,21.35
2018-08-25T07:35:12.958Z,21.29
2018-08-25T07:35:53.514Z,21.29
2018-08-25T07:36:34.106Z,21.25
2018-08-25T07:37:14.656Z,21.27
2018-08-25T07:37:55.237Z,21.29
2018-08-25T07:38:35.780Z,21.27
2018-08-25T07:39:16.346Z,21.29
2018-08-25T07:39:56.905Z,21.25
2018-08-25T07:40:37.499Z,21.24
2018-08-25T07:41:18.054Z,21.17
2018-08-25T07:41:58.613Z,21.17
2018-08-25T07:42:39.187Z,21.25
2018-08-25T07:43:19.755Z,21.17
2018-08-25T07:44:00.316Z,21.21
2018-08-25T07:44:40.984Z,21.18
2018-08-25T07:45:21.718Z,21.14
2018-08-25T07:46:02.235Z,21.27
2018-08-25T07:46:42.798Z,21.27
2018-08-25T07:47:23.376Z,21.39
2018-08-25T07:48:03.957Z,21.37
2018-08-25T07:48:44.596Z,21.3
2018-08-25T07:49:25.097Z,21.3
2018-08-25T07:50:05.657Z,21.27
2018-08-25T07:50:46.231Z,21.27
2018-08-25T07:51:26.836Z,21.39
2018-08-25T07:52:07.402Z,21.39
2018-08-25T07:52:47.982Z,21.37
2018-08-25T07:53:28.545Z,21.42
2018-08-25T07:54:09.107Z,21.4
2018-08-25T07:54:49.672Z,21.48
2018-08-25T07:55:30.258Z,21.54
2018-08-25T07:56:10.828Z,21.6
2018-08-25T07:56:51.382Z,21.58
2018-08-25T07:57:31.936Z,21.79
2018-08-25T07:58:12.518Z,21.89
2018-08-25T07:58:53.085Z,21.95
2018-08-25T07:59:33.651Z,22.06
2018-08-25T08:00:14.223Z,22.18
2018-08-25T08:00:54.815Z,22.22
2018-08-25T08:01:35.387Z,22.35
2018-08-25T08:02:15.961Z,22.28
2018-08-25T08:02:56.529Z,22.26
2018-08-25T08:03:37.104Z,22.25
2018-08-25T08:04:17.688Z,22.33
2018-08-25T08:04:58.251Z,22.25
2018-08-25T08:05:38.937Z,22.28
2018-08-25T08:06:19.463Z,22.15
2018-08-25T08:07:00.107Z,22.15
2018-08-25T08:07:40.636Z,22.22
2018-08-25T08:08:21.204Z,22.06
2018-08-25T08:09:01.767Z,22.07
2018-08-25T08:09:42.360Z,22.04
2018-08-25T08:10:22.908Z,21.99
2018-08-25T08:11:03.487Z,22
2018-08-25T08:11:44.095Z,22.08
2018-08-25T08:12:24.653Z,22
2018-08-25T08:13:05.250Z,21.99
2018-08-25T08:13:45.832Z,22.07
2018-08-25T08:14:26.403Z,22.11
2018-08-25T08:15:06.956Z,22.11
2018-08-25T08:15:47.538Z,22.1
2018-08-25T08:16:28.112Z,22.14
2018-08-25T08:17:08.679Z,22.13
2018-08-25T08:17:49.242Z,22.25
2018-08-25T08:18:29.804Z,22.25
2018-08-25T08:19:10.423Z,22.26
2018-08-25T08:19:51.015Z,22.18
2018-08-25T08:20:31.620Z,22.26
2018-08-25T08:21:12.187Z,22.25
2018-08-25T08:21:52.759Z,22.17
2018-08-25T08:22:33.339Z,22.18
2018-08-25T08:23:13.919Z,22.15
2018-08-25T08:23:54.492Z,22.25
2018-08-25T08:24:35.079Z,22.14
2018-08-25T08:25:15.712Z,22.23
2018-08-25T08:25:56.297Z,22.3
2018-08-25T08:26:36.959Z,22.29
2018-08-25T08:27:17.529Z,22.29
2018-08-25T08:27:58.098Z,22.33
2018-08-25T08:28:38.667Z,22.45
2018-08-25T08:29:19.293Z,22.44
2018-08-25T08:29:59.887Z,22.51
2018-08-25T08:30:40.456Z,22.55
2018-08-25T08:31:21.010Z,22.59
2018-08-25T08:32:01.580Z,22.76
2018-08-25T08:32:42.138Z,22.78
2018-08-25T08:33:22.853Z,22.76
2018-08-25T08:34:03.478Z,22.75
2018-08-25T08:34:44.293Z,22.83
2018-08-25T08:35:24.991Z,22.73
2018-08-25T08:36:05.622Z,22.85
2018-08-25T08:36:46.317Z,22.91
2018-08-25T08:37:27.083Z,22.88
2018-08-25T08:38:07.775Z,22.99
2018-08-25T08:38:48.324Z,22.94
2018-08-25T08:39:28.929Z,23.05
2018-08-25T08:40:09.516Z,23.08
2018-08-25T08:40:50.102Z,23.1
2018-08-25T08:41:30.674Z,23.18
2018-08-25T08:42:11.282Z,23.13
2018-08-25T08:42:51.817Z,23.13
2018-08-25T08:43:32.362Z,23.2
2018-08-25T08:44:12.928Z,23.23
2018-08-25T08:44:53.498Z,23.21